sensor_id;sensor_type;location;lat;lon;timestamp;pressure;altitude;pressure_sealevel;temperature;humidity
66880;BME280;72009;51.392;10.234;2024-02-21T00:00:15;98800.94;;;6.27;100.00
66880;BME280;72009;51.392;10.234;2024-02-21T00:00:35;98805.56;;;6.27;99.94
66880;BME280;72009;51.392;10.234;2024-02-21T00:00:56;98807.22;;;6.28;100.00
66880;BME280;72009;51.392;10.234;2024-02-21T00:01:16;98797.38;;;6.27;100.00
66880;BME280;72009;51.392;10.234;2024-02-21T00:01:37;98800.94;;;6.27;100.00
66880;BME280;72009;51.392;10.234;2024-02-21T00:01:57;98804.75;;;6.26;100.00
66880;BME280;72009;51.392;10.234;2024-02-21T00:02:18;98798.47;;;6.26;100.00
66880;BME280;72009;51.392;10.234;2024-02-21T00:02:38;98800.09;;;6.27;100.00
66880;BME280;72009;51.392;10.234;2024-02-21T00:02:58;98802.00;;;6.26;100.00
66880;BME280;72009;51.392;10.234;2024-02-21T00:03:18;98800.09;;;6.27;100.00
66880;BME280;72009;51.392;10.234;2024-02-21T00:03:39;98793.00;;;6.26;100.00
66880;BME280;72009;51.392;10.234;2024-02-21T00:03:59;98793.81;;;6.26;100.00
66880;BME280;72009;51.392;10.234;2024-02-21T00:04:19;98791.91;;;6.27;100.00
66880;BME280;72009;51.392;10.234;2024-02-21T00:04:39;98797.38;;;6.27;100.00
66880;BME280;72009;51.392;10.234;2024-02-21T00:05:00;98794.91;;;6.25;100.00
66880;BME280;72009;51.392;10.234;2024-02-21T00:05:20;98794.38;;;6.28;100.00
66880;BME280;72009;51.392;10.234;2024-02-21T00:05:40;98797.09;;;6.28;100.00
66880;BME280;72009;51.392;10.234;2024-02-21T00:06:00;98789.75;;;6.29;100.00
66880;BME280;72009;51.392;10.234;2024-02-21T00:06:21;98788.63;;;6.30;100.00
66880;BME280;72009;51.392;10.234;2024-02-21T00:06:41;98787.00;;;6.29;100.00
66880;BME280;72009;51.392;10.234;2024-02-21T00:07:02;98797.41;;;6.32;100.00
66880;BME280;72009;51.392;10.234;2024-02-21T00:07:22;98791.69;;;6.33;100.00
66880;BME280;72009;51.392;10.234;2024-02-21T00:07:42;98792.75;;;6.32;100.00
66880;BME280;72009;51.392;10.234;2024-02-21T00:08:03;98794.41;;;6.33;100.00
66880;BME280;72009;51.392;10.234;2024-02-21T00:08:23;98794.41;;;6.33;100.00
66880;BME280;72009;51.392;10.234;2024-02-21T00:08:43;98791.69;;;6.33;100.00
66880;BME280;72009;51.392;10.234;2024-02-21T00:09:04;98791.69;;;6.33;100.00
66880;BME280;72009;51.392;10.234;2024-02-21T00:09:24;98795.22;;;6.34;100.00
66880;BME280;72009;51.392;10.234;2024-02-21T00:09:44;98799.88;;;6.33;100.00
66880;BME280;72009;51.392;10.234;2024-02-21T00:10:05;98797.94;;;6.34;100.00
66880;BME280;72009;51.392;10.234;2024-02-21T00:10:25;98793.59;;;6.33;100.00
66880;BME280;72009;51.392;10.234;2024-02-21T00:10:46;98791.69;;;6.33;100.00
66880;BME280;72009;51.392;10.234;2024-02-21T00:11:06;98791.69;;;6.33;100.00
66880;BME280;72009;51.392;10.234;2024-02-21T00:11:26;98792.50;;;6.34;100.00
66880;BME280;72009;51.392;10.234;2024-02-21T00:11:46;98790.03;;;6.32;100.00
66880;BME280;72009;51.392;10.234;2024-02-21T00:12:07;98786.47;;;6.32;100.00
66880;BME280;72009;51.392;10.234;2024-02-21T00:12:27;98795.75;;;6.31;100.00
66880;BME280;72009;51.392;10.234;2024-02-21T00:12:47;98790.28;;;6.31;100.00
66880;BME280;72009;51.392;10.234;2024-02-21T00:13:08;98790.28;;;6.31;100.00
66880;BME280;72009;51.392;10.234;2024-02-21T00:13:28;98793.03;;;6.31;100.00
66880;BME280;72009;51.392;10.234;2024-02-21T00:13:48;98792.22;;;6.30;100.00
66880;BME280;72009;51.392;10.234;2024-02-21T00:14:08;98801.22;;;6.31;100.00
66880;BME280;72009;51.392;10.234;2024-02-21T00:14:29;98789.22;;;6.32;100.00
66880;BME280;72009;51.392;10.234;2024-02-21T00:14:49;98793.88;;;6.31;100.00
66880;BME280;72009;51.392;10.234;2024-02-21T00:15:10;98801.22;;;6.31;100.00
66880;BME280;72009;51.392;10.234;2024-02-21T00:15:30;98797.41;;;6.32;100.00
66880;BME280;72009;51.392;10.234;2024-02-21T00:15:50;98795.75;;;6.31;100.00
66880;BME280;72009;51.392;10.234;2024-02-21T00:16:10;98791.38;;;6.30;100.00
66880;BME280;72009;51.392;10.234;2024-02-21T00:16:31;98793.28;;;6.29;100.00
66880;BME280;72009;51.392;10.234;2024-02-21T00:16:51;98789.75;;;6.29;100.00
66880;BME280;72009;51.392;10.234;2024-02-21T00:17:11;98797.94;;;6.29;100.00
66880;BME280;72009;51.392;10.234;2024-02-21T00:17:31;98792.47;;;6.29;100.00
66880;BME280;72009;51.392;10.234;2024-02-21T00:17:52;98791.63;;;6.28;100.00
66880;BME280;72009;51.392;10.234;2024-02-21T00:18:13;98788.91;;;6.28;100.00
66880;BME280;72009;51.392;10.234;2024-02-21T00:18:33;98791.63;;;6.28;100.00
66880;BME280;72009;51.392;10.234;2024-02-21T00:18:53;98784.28;;;6.29;100.00
66880;BME280;72009;51.392;10.234;2024-02-21T00:19:14;98785.34;;;6.28;100.00
66880;BME280;72009;51.392;10.234;2024-02-21T00:19:34;98785.34;;;6.28;100.00
66880;BME280;72009;51.392;10.234;2024-02-21T00:19:54;98796.28;;;6.28;100.00
66880;BME280;72009;51.392;10.234;2024-02-21T00:20:14;98786.44;;;6.27;100.00
66880;BME280;72009;51.392;10.234;2024-02-21T00:20:35;98783.69;;;6.27;100.00
66880;BME280;72009;51.392;10.234;2024-02-21T00:20:55;98775.50;;;6.27;100.00
66880;BME280;72009;51.392;10.234;2024-02-21T00:21:16;98786.69;;;6.25;100.00
66880;BME280;72009;51.392;10.234;2024-02-21T00:21:36;98779.34;;;6.26;100.00
66880;BME280;72009;51.392;10.234;2024-02-21T00:21:56;98777.69;;;6.25;100.00
66880;BME280;72009;51.392;10.234;2024-02-21T00:22:17;98776.88;;;6.24;100.00
66880;BME280;72009;51.392;10.234;2024-02-21T00:22:37;98777.69;;;6.25;100.00
66880;BME280;72009;51.392;10.234;2024-02-21T00:22:57;98769.50;;;6.25;100.00
66880;BME280;72009;51.392;10.234;2024-02-21T00:23:17;98773.03;;;6.25;100.00
66880;BME280;72009;51.392;10.234;2024-02-21T00:23:38;98777.44;;;6.26;100.00
66880;BME280;72009;51.392;10.234;2024-02-21T00:23:58;98773.88;;;6.26;100.00
66880;BME280;72009;51.392;10.234;2024-02-21T00:24:18;98774.97;;;6.25;100.00
66880;BME280;72009;51.392;10.234;2024-02-21T00:24:38;98771.41;;;6.24;100.00
66880;BME280;72009;51.392;10.234;2024-02-21T00:24:59;98769.50;;;6.25;100.00
66880;BME280;72009;51.392;10.234;2024-02-21T00:25:19;98770.31;;;6.25;100.00
66880;BME280;72009;51.392;10.234;2024-02-21T00:25:40;98767.56;;;6.25;100.00
66880;BME280;72009;51.392;10.234;2024-02-21T00:26:00;98769.22;;;6.26;100.00
66880;BME280;72009;51.392;10.234;2024-02-21T00:26:20;98765.69;;;6.26;100.00
66880;BME280;72009;51.392;10.234;2024-02-21T00:26:40;98773.88;;;6.26;100.00
66880;BME280;72009;51.392;10.234;2024-02-21T00:27:01;98766.50;;;6.26;100.00
66880;BME280;72009;51.392;10.234;2024-02-21T00:27:21;98773.63;;;6.27;100.00
66880;BME280;72009;51.392;10.234;2024-02-21T00:27:41;98771.97;;;6.26;100.00
66880;BME280;72009;51.392;10.234;2024-02-21T00:28:02;98766.50;;;6.26;100.00
66880;BME280;72009;51.392;10.234;2024-02-21T00:28:22;98768.97;;;6.28;100.00
66880;BME280;72009;51.392;10.234;2024-02-21T00:28:42;98772.78;;;6.27;100.00
66880;BME280;72009;51.392;10.234;2024-02-21T00:29:03;98771.97;;;6.26;100.00
66880;BME280;72009;51.392;10.234;2024-02-21T00:29:23;98769.50;;;6.25;100.00
66880;BME280;72009;51.392;10.234;2024-02-21T00:29:43;98767.56;;;6.25;100.00
66880;BME280;72009;51.392;10.234;2024-02-21T00:30:04;98770.31;;;6.25;100.00
66880;BME280;72009;51.392;10.234;2024-02-21T00:30:24;98771.97;;;6.26;100.00
66880;BME280;72009;51.392;10.234;2024-02-21T00:30:45;98768.41;;;6.26;100.00
66880;BME280;72009;51.392;10.234;2024-02-21T00:31:05;98776.63;;;6.26;100.00
66880;BME280;72009;51.392;10.234;2024-02-21T00:31:25;98766.50;;;6.26;100.00
66880;BME280;72009;51.392;10.234;2024-02-21T00:31:46;98770.31;;;6.25;100.00
66880;BME280;72009;51.392;10.234;2024-02-21T00:32:06;98770.88;;;6.27;100.00
66880;BME280;72009;51.392;10.234;2024-02-21T00:32:26;98779.88;;;6.28;100.00
66880;BME280;72009;51.392;10.234;2024-02-21T00:32:46;98769.78;;;6.28;100.00
66880;BME280;72009;51.392;10.234;2024-02-21T00:33:07;98766.22;;;6.28;100.00
66880;BME280;72009;51.392;10.234;2024-02-21T00:33:27;98767.88;;;6.29;100.00
66880;BME280;72009;51.392;10.234;2024-02-21T00:33:47;98769.78;;;6.28;100.00
66880;BME280;72009;51.392;10.234;2024-02-21T00:34:07;98770.88;;;6.27;100.00
66880;BME280;72009;51.392;10.234;2024-02-21T00:34:28;98770.03;;;6.27;100.00
66880;BME280;72009;51.392;10.234;2024-02-21T00:34:48;98776.63;;;6.26;100.00
66880;BME280;72009;51.392;10.234;2024-02-21T00:35:08;98773.88;;;6.26;100.00
66880;BME280;72009;51.392;10.234;2024-02-21T00:35:29;98776.34;;;6.27;100.00
66880;BME280;72009;51.392;10.234;2024-02-21T00:35:49;98775.50;;;6.27;100.00
66880;BME280;72009;51.392;10.234;2024-02-21T00:36:10;98777.44;;;6.26;100.00
66880;BME280;72009;51.392;10.234;2024-02-21T00:36:30;98775.50;;;6.27;100.00
66880;BME280;72009;51.392;10.234;2024-02-21T00:36:50;98773.88;;;6.26;100.00
66880;BME280;72009;51.392;10.234;2024-02-21T00:37:11;98780.97;;;6.27;100.00
66880;BME280;72009;51.392;10.234;2024-02-21T00:37:31;98777.16;;;6.28;100.00
66880;BME280;72009;51.392;10.234;2024-02-21T00:37:52;98788.91;;;6.28;100.00
66880;BME280;72009;51.392;10.234;2024-02-21T00:38:12;98783.69;;;6.27;100.00
66880;BME280;72009;51.392;10.234;2024-02-21T00:38:32;98787.53;;;6.26;100.00
66880;BME280;72009;51.392;10.234;2024-02-21T00:38:53;98783.97;;;6.25;100.00
66880;BME280;72009;51.392;10.234;2024-02-21T00:39:13;98791.34;;;6.25;100.00
66880;BME280;72009;51.392;10.234;2024-02-21T00:39:33;98778.78;;;6.24;100.00
66880;BME280;72009;51.392;10.234;2024-02-21T00:39:54;98782.63;;;6.23;100.00
66880;BME280;72009;51.392;10.234;2024-02-21T00:40:14;98779.03;;;6.22;100.00
66880;BME280;72009;51.392;10.234;2024-02-21T00:40:35;98781.50;;;6.24;100.00
66880;BME280;72009;51.392;10.234;2024-02-21T00:40:55;98776.31;;;6.22;100.00
66880;BME280;72009;51.392;10.234;2024-02-21T00:41:15;98782.88;;;6.21;100.00
66880;BME280;72009;51.392;10.234;2024-02-21T00:41:36;98777.69;;;6.19;100.00
66880;BME280;72009;51.392;10.234;2024-02-21T00:41:56;98780.16;;;6.21;100.00
66880;BME280;72009;51.392;10.234;2024-02-21T00:42:16;98778.50;;;6.20;100.00
66880;BME280;72009;51.392;10.234;2024-02-21T00:42:37;98776.56;;;6.20;100.00
66880;BME280;72009;51.392;10.234;2024-02-21T00:42:57;98780.41;;;6.19;100.00
66880;BME280;72009;51.392;10.234;2024-02-21T00:43:17;98779.56;;;6.19;100.00
66880;BME280;72009;51.392;10.234;2024-02-21T00:43:37;98786.94;;;6.18;100.00
66880;BME280;72009;51.392;10.234;2024-02-21T00:43:58;98775.19;;;6.18;100.00
66880;BME280;72009;51.392;10.234;2024-02-21T00:44:18;98779.84;;;6.17;100.00
66880;BME280;72009;51.392;10.234;2024-02-21T00:44:38;98776.28;;;6.17;100.00
66880;BME280;72009;51.392;10.234;2024-02-21T00:44:59;98775.44;;;6.16;100.00
66880;BME280;72009;51.392;10.234;2024-02-21T00:45:19;98777.09;;;6.17;100.00
66880;BME280;72009;51.392;10.234;2024-02-21T00:45:39;98777.38;;;6.16;100.00
66880;BME280;72009;51.392;10.234;2024-02-21T00:45:59;98777.38;;;6.16;100.00
66880;BME280;72009;51.392;10.234;2024-02-21T00:46:20;98772.72;;;6.16;100.00
66880;BME280;72009;51.392;10.234;2024-02-21T00:46:40;98779.28;;;6.15;100.00
66880;BME280;72009;51.392;10.234;2024-02-21T00:47:00;98770.00;;;6.16;100.00
66880;BME280;72009;51.392;10.234;2024-02-21T00:47:21;98772.72;;;6.16;100.00
66880;BME280;72009;51.392;10.234;2024-02-21T00:47:41;98778.19;;;6.16;100.00
66880;BME280;72009;51.392;10.234;2024-02-21T00:48:01;98773.28;;;6.18;100.00
66880;BME280;72009;51.392;10.234;2024-02-21T00:48:21;98776.03;;;6.18;100.00
66880;BME280;72009;51.392;10.234;2024-02-21T00:48:42;98774.38;;;6.17;100.00
66880;BME280;72009;51.392;10.234;2024-02-21T00:49:02;98771.63;;;6.17;100.00
66880;BME280;72009;51.392;10.234;2024-02-21T00:49:22;98777.91;;;6.18;100.00
66880;BME280;72009;51.392;10.234;2024-02-21T00:49:43;98782.56;;;6.17;100.00
66880;BME280;72009;51.392;10.234;2024-02-21T00:50:03;98782.03;;;6.15;100.00
66880;BME280;72009;51.392;10.234;2024-02-21T00:50:24;98782.03;;;6.15;100.00
66880;BME280;72009;51.392;10.234;2024-02-21T00:50:44;98775.72;;;6.15;100.00
66880;BME280;72009;51.392;10.234;2024-02-21T00:51:04;98779.56;;;6.14;100.00
66880;BME280;72009;51.392;10.234;2024-02-21T00:51:24;98776.81;;;6.14;100.00
66880;BME280;72009;51.392;10.234;2024-02-21T00:51:45;98780.38;;;6.14;100.00
66880;BME280;72009;51.392;10.234;2024-02-21T00:52:05;98784.75;;;6.15;100.00
66880;BME280;72009;51.392;10.234;2024-02-21T00:52:25;98776.81;;;6.14;100.00
66880;BME280;72009;51.392;10.234;2024-02-21T00:52:46;98775.97;;;6.13;100.00
66880;BME280;72009;51.392;10.234;2024-02-21T00:53:06;98777.91;;;6.13;100.00
66880;BME280;72009;51.392;10.234;2024-02-21T00:53:26;98782.03;;;6.15;100.00
66880;BME280;72009;51.392;10.234;2024-02-21T00:53:46;98774.09;;;6.14;100.00
66880;BME280;72009;51.392;10.234;2024-02-21T00:54:07;98777.63;;;6.14;100.00
66880;BME280;72009;51.392;10.234;2024-02-21T00:54:27;98778.72;;;6.13;100.00
66880;BME280;72009;51.392;10.234;2024-02-21T00:54:47;98778.44;;;6.15;100.00
66880;BME280;72009;51.392;10.234;2024-02-21T00:55:08;98772.97;;;6.15;100.00
66880;BME280;72009;51.392;10.234;2024-02-21T00:55:28;98773.25;;;6.13;100.00
66880;BME280;72009;51.392;10.234;2024-02-21T00:55:48;98770.53;;;6.13;100.00
66880;BME280;72009;51.392;10.234;2024-02-21T00:56:09;98779.81;;;6.12;100.00
66880;BME280;72009;51.392;10.234;2024-02-21T00:56:29;98781.72;;;6.12;100.00
66880;BME280;72009;51.392;10.234;2024-02-21T00:56:49;98775.16;;;6.13;100.00
66880;BME280;72009;51.392;10.234;2024-02-21T00:57:09;98774.34;;;6.12;100.00
66880;BME280;72009;51.392;10.234;2024-02-21T00:57:30;98771.63;;;6.12;100.00
66880;BME280;72009;51.392;10.234;2024-02-21T00:57:50;98777.34;;;6.11;100.00
66880;BME280;72009;51.392;10.234;2024-02-21T00:58:10;98774.63;;;6.11;100.00
66880;BME280;72009;51.392;10.234;2024-02-21T00:58:30;98772.16;;;6.09;100.00
66880;BME280;72009;51.392;10.234;2024-02-21T00:58:51;98773.22;;;6.08;100.00
66880;BME280;72009;51.392;10.234;2024-02-21T00:59:11;98764.22;;;6.08;100.00
66880;BME280;72009;51.392;10.234;2024-02-21T00:59:31;98774.03;;;6.09;100.00
66880;BME280;72009;51.392;10.234;2024-02-21T00:59:52;98762.03;;;6.10;100.00
66880;BME280;72009;51.392;10.234;2024-02-21T01:00:12;98771.31;;;6.09;100.00
66880;BME280;72009;51.392;10.234;2024-02-21T01:00:33;98764.78;;;6.10;100.00
66880;BME280;72009;51.392;10.234;2024-02-21T01:00:53;98765.84;;;6.09;100.00
66880;BME280;72009;51.392;10.234;2024-02-21T01:01:21;98770.25;;;6.10;100.00
66880;BME280;72009;51.392;10.234;2024-02-21T01:01:41;98771.06;;;6.10;100.00
66880;BME280;72009;51.392;10.234;2024-02-21T01:02:02;98765.84;;;6.09;100.00
66880;BME280;72009;51.392;10.234;2024-02-21T01:02:22;98768.31;;;6.10;100.00
66880;BME280;72009;51.392;10.234;2024-02-21T01:02:42;98773.78;;;6.10;100.00
66880;BME280;72009;51.392;10.234;2024-02-21T01:03:03;98770.25;;;6.10;100.00
66880;BME280;72009;51.392;10.234;2024-02-21T01:03:23;98768.59;;;6.09;100.00
66880;BME280;72009;51.392;10.234;2024-02-21T01:03:43;98768.84;;;6.07;100.00
66880;BME280;72009;51.392;10.234;2024-02-21T01:04:03;98767.19;;;6.06;100.00
66880;BME280;72009;51.392;10.234;2024-02-21T01:04:24;98764.47;;;6.06;100.00
66880;BME280;72009;51.392;10.234;2024-02-21T01:04:44;98767.19;;;6.06;100.00
66880;BME280;72009;51.392;10.234;2024-02-21T01:05:05;98762.00;;;6.04;100.00
66880;BME280;72009;51.392;10.234;2024-02-21T01:05:25;98759.53;;;6.03;100.00
66880;BME280;72009;51.392;10.234;2024-02-21T01:05:45;98766.91;;;6.02;100.00
66880;BME280;72009;51.392;10.234;2024-02-21T01:06:06;98764.44;;;6.01;100.00
66880;BME280;72009;51.392;10.234;2024-02-21T01:06:26;98759.00;;;6.01;100.00
66880;BME280;72009;51.392;10.234;2024-02-21T01:06:46;98759.81;;;6.01;100.00
66880;BME280;72009;51.392;10.234;2024-02-21T01:07:07;98766.91;;;6.02;100.00
66880;BME280;72009;51.392;10.234;2024-02-21T01:07:27;98759.00;;;6.01;100.00
66880;BME280;72009;51.392;10.234;2024-02-21T01:07:47;98762.78;;;6.00;100.00
66880;BME280;72009;51.392;10.234;2024-02-21T01:08:07;98757.34;;;6.00;100.00
66880;BME280;72009;51.392;10.234;2024-02-21T01:08:28;98761.72;;;6.01;100.00
66880;BME280;72009;51.392;10.234;2024-02-21T01:08:48;98759.00;;;6.01;100.00
66880;BME280;72009;51.392;10.234;2024-02-21T01:09:09;98765.25;;;6.01;100.00
66880;BME280;72009;51.392;10.234;2024-02-21T01:09:29;98759.00;;;6.01;100.00
66880;BME280;72009;51.392;10.234;2024-02-21T01:09:49;98759.81;;;6.01;100.00
66880;BME280;72009;51.392;10.234;2024-02-21T01:10:10;98759.00;;;6.01;100.00
66880;BME280;72009;51.392;10.234;2024-02-21T01:10:30;98756.25;;;6.01;100.00
66880;BME280;72009;51.392;10.234;2024-02-21T01:10:50;98759.00;;;6.01;100.00
66880;BME280;72009;51.392;10.234;2024-02-21T01:11:10;98749.97;;;6.00;100.00
66880;BME280;72009;51.392;10.234;2024-02-21T01:11:31;98758.19;;;6.00;100.00
66880;BME280;72009;51.392;10.234;2024-02-21T01:11:51;98753.53;;;6.01;100.00
66880;BME280;72009;51.392;10.234;2024-02-21T01:12:11;98756.25;;;6.01;100.00
66880;BME280;72009;51.392;10.234;2024-02-21T01:12:32;98758.19;;;6.00;100.00
66880;BME280;72009;51.392;10.234;2024-02-21T01:12:52;98755.72;;;5.99;100.00
66880;BME280;72009;51.392;10.234;2024-02-21T01:13:12;98754.88;;;5.98;100.00
66880;BME280;72009;51.392;10.234;2024-02-21T01:13:32;98756.78;;;5.98;100.00
66880;BME280;72009;51.392;10.234;2024-02-21T01:13:53;98755.72;;;5.99;100.00
66880;BME280;72009;51.392;10.234;2024-02-21T01:14:13;98750.25;;;5.99;100.00
66880;BME280;72009;51.392;10.234;2024-02-21T01:14:33;98753.25;;;5.97;100.00
66880;BME280;72009;51.392;10.234;2024-02-21T01:14:54;98750.50;;;5.97;100.00
66880;BME280;72009;51.392;10.234;2024-02-21T01:15:14;98746.13;;;5.96;100.00
66880;BME280;72009;51.392;10.234;2024-02-21T01:15:34;98748.84;;;5.96;100.00
66880;BME280;72009;51.392;10.234;2024-02-21T01:15:55;98746.13;;;5.96;100.00
66880;BME280;72009;51.392;10.234;2024-02-21T01:16:15;98741.47;;;5.97;100.00
66880;BME280;72009;51.392;10.234;2024-02-21T01:16:35;98744.22;;;5.97;100.00
66880;BME280;72009;51.392;10.234;2024-02-21T01:16:55;98740.66;;;5.96;100.00
66880;BME280;72009;51.392;10.234;2024-02-21T01:17:16;98747.19;;;5.95;100.00
66880;BME280;72009;51.392;10.234;2024-02-21T01:17:36;98741.75;;;5.95;100.00
66880;BME280;72009;51.392;10.234;2024-02-21T01:17:56;98743.94;;;5.93;100.00
66880;BME280;72009;51.392;10.234;2024-02-21T01:20:18;98739.53;;;5.92;100.00
66880;BME280;72009;51.392;10.234;2024-02-21T01:20:38;98742.28;;;5.92;100.00
66880;BME280;72009;51.392;10.234;2024-02-21T01:20:59;98734.91;;;5.93;100.00
66880;BME280;72009;51.392;10.234;2024-02-21T01:21:19;98739.53;;;5.92;100.00
66880;BME280;72009;51.392;10.234;2024-02-21T01:21:39;98735.16;;;5.91;100.00
66880;BME280;72009;51.392;10.234;2024-02-21T01:22:00;98742.28;;;5.92;100.00
66880;BME280;72009;51.392;10.234;2024-02-21T01:22:20;98744.19;;;5.92;100.00
66880;BME280;72009;51.392;10.234;2024-02-21T01:22:40;98742.00;;;5.89;100.00
66880;BME280;72009;51.392;10.234;2024-02-21T01:23:00;98742.25;;;5.87;100.00
66880;BME280;72009;51.392;10.234;2024-02-21T01:23:21;98743.88;;;5.88;100.00
66880;BME280;72009;51.392;10.234;2024-02-21T01:23:41;98734.63;;;5.89;100.00
66880;BME280;72009;51.392;10.234;2024-02-21T01:24:01;98734.63;;;5.89;100.00
66880;BME280;72009;51.392;10.234;2024-02-21T01:24:22;98739.25;;;5.89;100.00
66880;BME280;72009;51.392;10.234;2024-02-21T01:24:42;98732.69;;;5.90;100.00
66880;BME280;72009;51.392;10.234;2024-02-21T01:25:02;98739.00;;;5.90;100.00
66880;BME280;72009;51.392;10.234;2024-02-21T01:25:23;98739.00;;;5.90;100.00
66880;BME280;72009;51.392;10.234;2024-02-21T01:25:43;98744.19;;;5.92;100.00
66880;BME280;72009;51.392;10.234;2024-02-21T01:26:04;98733.53;;;5.90;100.00
66880;BME280;72009;51.392;10.234;2024-02-21T01:26:24;98737.09;;;5.91;100.00
66880;BME280;72009;51.392;10.234;2024-02-21T01:26:44;98738.72;;;5.92;100.00
66880;BME280;72009;51.392;10.234;2024-02-21T01:27:05;98740.63;;;5.91;100.00
66880;BME280;72009;51.392;10.234;2024-02-21T01:27:25;98739.81;;;5.91;100.00
66880;BME280;72009;51.392;10.234;2024-02-21T01:27:45;98735.44;;;5.90;100.00
66880;BME280;72009;51.392;10.234;2024-02-21T01:28:06;98735.44;;;5.90;100.00
66880;BME280;72009;51.392;10.234;2024-02-21T01:28:26;98731.88;;;5.89;100.00
66880;BME280;72009;51.392;10.234;2024-02-21T01:28:46;98730.22;;;5.88;100.00
66880;BME280;72009;51.392;10.234;2024-02-21T01:29:06;98732.69;;;5.90;100.00
66880;BME280;72009;51.392;10.234;2024-02-21T01:29:27;98740.06;;;5.89;100.00
66880;BME280;72009;51.392;10.234;2024-02-21T01:29:47;98737.59;;;5.88;100.00
66880;BME280;72009;51.392;10.234;2024-02-21T01:30:08;98735.69;;;5.88;100.00
66880;BME280;72009;51.392;10.234;2024-02-21T01:30:28;98738.69;;;5.86;100.00
66880;BME280;72009;51.392;10.234;2024-02-21T01:30:48;98738.69;;;5.86;100.00
66880;BME280;72009;51.392;10.234;2024-02-21T01:31:09;98735.16;;;5.86;100.00
66880;BME280;72009;51.392;10.234;2024-02-21T01:31:29;98738.13;;;5.84;100.00
66880;BME280;72009;51.392;10.234;2024-02-21T01:31:49;98733.50;;;5.85;100.00
66880;BME280;72009;51.392;10.234;2024-02-21T01:32:09;98733.22;;;5.86;100.00
66880;BME280;72009;51.392;10.234;2024-02-21T01:32:30;98734.34;;;5.85;100.00
66880;BME280;72009;51.392;10.234;2024-02-21T01:32:50;98739.78;;;5.85;100.00
66880;BME280;72009;51.392;10.234;2024-02-21T01:33:10;98728.88;;;5.85;100.00
66880;BME280;72009;51.392;10.234;2024-02-21T01:33:31;98734.34;;;5.85;100.00
66880;BME280;72009;51.392;10.234;2024-02-21T01:33:51;98732.69;;;5.84;100.00
66880;BME280;72009;51.392;10.234;2024-02-21T01:34:11;98736.22;;;5.85;100.00
66880;BME280;72009;51.392;10.234;2024-02-21T01:34:31;98734.34;;;5.85;100.00
66880;BME280;72009;51.392;10.234;2024-02-21T01:34:52;98728.03;;;5.85;100.00
66880;BME280;72009;51.392;10.234;2024-02-21T01:35:12;98727.22;;;5.84;100.00
66880;BME280;72009;51.392;10.234;2024-02-21T01:35:32;98728.03;;;5.85;100.00
66880;BME280;72009;51.392;10.234;2024-02-21T01:35:53;98737.31;;;5.84;100.00
66880;BME280;72009;51.392;10.234;2024-02-21T01:36:13;98726.63;;;5.82;100.00
66880;BME280;72009;51.392;10.234;2024-02-21T01:36:33;98725.03;;;5.81;100.00
66880;BME280;72009;51.392;10.234;2024-02-21T01:36:54;98726.63;;;5.82;100.00
66880;BME280;72009;51.392;10.234;2024-02-21T01:37:14;98724.75;;;5.83;100.00
66880;BME280;72009;51.392;10.234;2024-02-21T01:37:34;98724.19;;;5.81;100.00
66880;BME280;72009;51.392;10.234;2024-02-21T01:37:54;98718.97;;;5.79;100.00
66880;BME280;72009;51.392;10.234;2024-02-21T01:38:15;98727.16;;;5.79;100.00
66880;BME280;72009;51.392;10.234;2024-02-21T01:38:35;98723.63;;;5.79;100.00
66880;BME280;72009;51.392;10.234;2024-02-21T01:38:56;98715.72;;;5.77;100.00
66880;BME280;72009;51.392;10.234;2024-02-21T01:39:16;98717.63;;;5.77;100.00
66880;BME280;72009;51.392;10.234;2024-02-21T01:39:37;98724.97;;;5.76;100.00
66880;BME280;72009;51.392;10.234;2024-02-21T01:39:57;98723.09;;;5.77;100.00
66880;BME280;72009;51.392;10.234;2024-02-21T01:40:17;98715.72;;;5.77;100.00
66880;BME280;72009;51.392;10.234;2024-02-21T01:40:38;98722.25;;;5.76;100.00
66880;BME280;72009;51.392;10.234;2024-02-21T01:40:58;98719.50;;;5.76;100.00
66880;BME280;72009;51.392;10.234;2024-02-21T01:41:18;98720.34;;;5.77;100.00
66880;BME280;72009;51.392;10.234;2024-02-21T01:41:39;98719.50;;;5.76;100.00
66880;BME280;72009;51.392;10.234;2024-02-21T01:41:59;98719.50;;;5.76;100.00
66880;BME280;72009;51.392;10.234;2024-02-21T01:42:19;98720.63;;;5.75;100.00
66880;BME280;72009;51.392;10.234;2024-02-21T01:42:40;98718.69;;;5.76;100.00
66880;BME280;72009;51.392;10.234;2024-02-21T01:43:00;98717.63;;;5.77;100.00
66880;BME280;72009;51.392;10.234;2024-02-21T01:43:21;98712.97;;;5.77;100.00
66880;BME280;72009;51.392;10.234;2024-02-21T01:43:41;98720.34;;;5.77;100.00
66880;BME280;72009;51.392;10.234;2024-02-21T01:44:01;98717.03;;;5.75;100.00
66880;BME280;72009;51.392;10.234;2024-02-21T01:44:22;98714.06;;;5.76;100.00
66880;BME280;72009;51.392;10.234;2024-02-21T01:44:42;98718.97;;;5.74;100.00
66880;BME280;72009;51.392;10.234;2024-02-21T01:45:03;98715.16;;;5.75;100.00
66880;BME280;72009;51.392;10.234;2024-02-21T01:45:23;98712.69;;;5.74;100.00
66880;BME280;72009;51.392;10.234;2024-02-21T01:45:49;98711.59;;;5.75;100.00
66880;BME280;72009;51.392;10.234;2024-02-21T01:46:09;98716.78;;;5.76;100.00
66880;BME280;72009;51.392;10.234;2024-02-21T01:46:30;98714.91;;;5.77;100.00
66880;BME280;72009;51.392;10.234;2024-02-21T01:46:51;98714.91;;;5.77;100.00
66880;BME280;72009;51.392;10.234;2024-02-21T01:47:13;98721.97;;;5.73;100.00
66880;BME280;72009;51.392;10.234;2024-02-21T01:47:34;98710.22;;;5.72;100.00
66880;BME280;72009;51.392;10.234;2024-02-21T01:47:56;98714.84;;;5.72;100.00
66880;BME280;72009;51.392;10.234;2024-02-21T01:48:17;98711.03;;;5.73;100.00
66880;BME280;72009;51.392;10.234;2024-02-21T01:48:38;98711.84;;;5.73;100.00